Portada
METAR-TAF:

METAR-TAF

Aeroports :

Haikou, Xina

latitud: 19-56-05N, longitud: 110-27-32E, altitud: 23 m

Observació

L'informe es va fer fa 26 minuts, a les 11:00 UTC
Vent 8 kt del Nord-Est
Temperatura 17°C
Humitat 48%
Pressió 1023 hPa
Visibilitat 10 km o més
sense núvols per sota de 1500 mi sense presència de cumulonimbus.

METAR: ZJHK 071100Z 05004MPS CAVOK 17/06 Q1023 NOSIG

Hora: 19:26 (11:26 UTC)

Pronòstic

L'informe es va fer fa 9 hores i 10 minuts, a les 02:16 UTC
Pronòstic vàlid del 07 a les 06 UTC al 08 a les 06 UTC
Vent 10 kt del Nord-Est amb ràfegues de 25 kt
Visibilitat 10 km o més
Núvols disperses a una alçada de 2000 ft

TAF: ZJHK 070216Z 0706/0806 04005G13MPS 9999 SCT020 TX21/0706Z TN15/0721Z

Observacions i pronòstics meteorològics de més de 4000 aeroports (METAR i TAF).

Les estacions disponibles són els punts grocs i vermells al mapa.

Posi el ratolí al punt desitjat per veure el nom de l'estació.

Feu clic per veure les observacions i els pronòstics meteorològics.

Per canviar el mapa: feu clic els botons verds amb una creu de color negre per apropar; al botó verd amb un guió per allunyar la imatge; o en les fletxes verdes per a mapes adjacents.


METAR-TAF: